createdAt,value
2022-11-03T00:01:15.317Z,94.93
2022-11-03T00:03:42.890Z,111.73
2022-11-03T00:06:11.767Z,131.70
2022-11-03T00:08:41.515Z,100.53
2022-11-03T00:11:11.326Z,93.87
2022-11-03T00:13:40.671Z,123.23
2022-11-03T00:16:09.539Z,150.10
2022-11-03T00:18:37.428Z,147.67
2022-11-03T00:21:06.438Z,107.43
2022-11-03T00:23:37.143Z,159.17
2022-11-03T00:26:06.748Z,120.10
2022-11-03T00:28:35.166Z,80.23
2022-11-03T00:31:06.759Z,180.27
2022-11-03T00:33:34.398Z,170.80
2022-11-03T00:36:02.598Z,139.60
2022-11-03T00:38:30.772Z,116.10
2022-11-03T00:41:01.264Z,193.43
2022-11-03T00:43:30.444Z,116.13
2022-11-03T00:45:58.100Z,118.33
2022-11-03T00:48:32.424Z,176.33
2022-11-03T00:51:04.581Z,165.40
2022-11-03T00:53:33.154Z,195.03
2022-11-03T00:56:02.320Z,220.13
2022-11-03T00:58:30.081Z,154.93
2022-11-03T01:01:02.582Z,112.27
2022-11-03T01:03:30.484Z,135.80
2022-11-03T01:06:15.574Z,129.70
2022-11-03T01:08:43.137Z,127.80
2022-11-03T01:11:31.650Z,163.83
2022-11-03T01:13:59.566Z,125.53
2022-11-03T01:16:27.651Z,199.37
2022-11-03T01:18:55.818Z,139.97
2022-11-03T01:21:23.481Z,164.00
2022-11-03T01:23:51.282Z,118.00
2022-11-03T01:26:20.326Z,214.03
2022-11-03T01:28:48.812Z,126.30
2022-11-03T01:31:18.411Z,113.83
2022-11-03T01:33:47.083Z,192.07
2022-11-03T01:36:15.939Z,204.83
2022-11-03T01:38:44.390Z,134.47
2022-11-03T01:41:14.905Z,268.70
2022-11-03T01:43:44.450Z,241.93
2022-11-03T01:46:19.268Z,242.30
2022-11-03T01:48:56.892Z,176.80
2022-11-03T01:51:27.908Z,147.77
2022-11-03T01:53:58.100Z,167.90
2022-11-03T01:56:27.219Z,160.97
2022-11-03T01:58:56.731Z,198.47
2022-11-03T02:01:24.613Z,205.57
2022-11-03T02:03:56.096Z,251.93
2022-11-03T02:06:26.962Z,183.23
2022-11-03T02:09:00.986Z,197.67
2022-11-03T02:11:46.249Z,155.87
2022-11-03T02:14:15.885Z,109.07
2022-11-03T02:16:48.767Z,92.18
2022-11-03T02:19:23.442Z,99.30
2022-11-03T02:21:59.791Z,224.60
2022-11-03T02:24:37.195Z,213.80
2022-11-03T02:27:06.147Z,178.87
2022-11-03T02:29:33.817Z,282.23
2022-11-03T02:32:08.112Z,107.20
2022-11-03T02:34:43.382Z,100.95
2022-11-03T02:37:16.393Z,164.73
2022-11-03T02:39:47.812Z,189.07
2022-11-03T02:42:20.043Z,276.87
2022-11-03T02:44:48.857Z,201.90
2022-11-03T02:47:19.092Z,186.63
2022-11-03T02:49:48.258Z,207.17
2022-11-03T02:52:37.734Z,254.90
2022-11-03T02:55:13.372Z,175.67
2022-11-03T02:57:49.893Z,126.13
2022-11-03T03:00:18.177Z,171.17
2022-11-03T03:02:56.206Z,138.07
2022-11-03T03:05:27.344Z,114.83
2022-11-03T03:08:00.878Z,95.73
2022-11-03T03:10:33.532Z,105.30
2022-11-03T03:13:04.810Z,115.60
2022-11-03T03:15:41.724Z,80.67
2022-11-03T03:18:17.464Z,110.87
2022-11-03T03:20:53.234Z,219.50
2022-11-03T03:23:32.609Z,89.80
2022-11-03T03:26:04.730Z,91.60
2022-11-03T03:28:37.995Z,112.93
2022-11-03T03:31:09.859Z,122.73
2022-11-03T03:33:42.047Z,124.20
2022-11-03T03:36:15.517Z,151.80
2022-11-03T03:38:47.367Z,108.97
2022-11-03T03:41:21.969Z,90.67
2022-11-03T03:43:54.587Z,69.10
2022-11-03T03:46:25.039Z,77.80
2022-11-03T03:48:52.616Z,148.30
2022-11-03T03:51:24.030Z,74.40
2022-11-03T03:53:53.073Z,128.10
2022-11-03T03:56:24.672Z,140.23
2022-11-03T03:58:53.562Z,116.27
2022-11-03T04:01:21.228Z,93.50
2022-11-03T04:03:49.098Z,91.33
2022-11-03T04:06:16.741Z,118.50
2022-11-03T04:08:44.720Z,98.47
2022-11-03T04:11:29.909Z,134.73
2022-11-03T04:14:17.056Z,67.00
2022-11-03T04:17:02.081Z,90.27
2022-11-03T04:19:47.393Z,114.20
2022-11-03T04:22:17.616Z,111.17
2022-11-03T04:24:46.409Z,101.47
2022-11-03T04:27:27.775Z,113.00
2022-11-03T04:29:59.167Z,115.07
2022-11-03T04:32:27.106Z,137.60
2022-11-03T04:34:55.077Z,87.70
2022-11-03T04:37:23.128Z,59.57
2022-11-03T04:39:50.756Z,95.53
2022-11-03T04:42:20.464Z,62.93
2022-11-03T04:44:49.250Z,72.93
2022-11-03T04:47:19.521Z,98.87
2022-11-03T04:49:48.514Z,75.73
2022-11-03T04:52:17.946Z,65.43
2022-11-03T04:54:47.517Z,69.80
2022-11-03T04:57:17.057Z,97.60
2022-11-03T04:59:48.411Z,72.73
2022-11-03T05:02:20.057Z,68.30
2022-11-03T05:04:47.844Z,72.83
2022-11-03T05:07:25.408Z,86.53
2022-11-03T05:09:53.232Z,59.70
2022-11-03T05:12:21.687Z,55.57
2022-11-03T05:14:51.901Z,90.47
2022-11-03T05:17:27.030Z,72.70
2022-11-03T05:19:58.824Z,69.53
2022-11-03T05:22:30.338Z,48.07
2022-11-03T05:25:03.574Z,81.23
2022-11-03T05:27:31.427Z,67.03
2022-11-03T05:30:01.429Z,58.43
2022-11-03T05:32:35.180Z,120.43
2022-11-03T05:35:03.491Z,72.03
2022-11-03T05:37:33.643Z,64.67
2022-11-03T05:40:04.967Z,70.23
2022-11-03T05:42:38.694Z,58.27
2022-11-03T05:45:16.967Z,75.57
2022-11-03T05:47:45.902Z,69.97
2022-11-03T05:50:20.893Z,63.77
2022-11-03T05:52:51.588Z,43.00
2022-11-03T05:55:27.691Z,67.30
2022-11-03T05:57:58.371Z,70.67
2022-11-03T06:00:29.272Z,66.27
2022-11-03T06:02:59.585Z,74.53
2022-11-03T06:05:28.793Z,95.70
2022-11-03T06:07:57.517Z,114.67
2022-11-03T06:10:27.348Z,55.60
2022-11-03T06:13:00.327Z,74.63
2022-11-03T06:15:32.792Z,61.13
2022-11-03T06:18:11.234Z,77.47
2022-11-03T06:20:38.800Z,97.10
2022-11-03T06:23:10.499Z,80.17
2022-11-03T06:25:41.842Z,99.17
2022-11-03T06:28:16.283Z,73.93
2022-11-03T06:30:44.091Z,45.37
2022-11-03T06:33:16.464Z,124.07
2022-11-03T06:35:45.122Z,62.27
2022-11-03T06:38:20.766Z,49.23
2022-11-03T06:40:51.048Z,137.27
2022-11-03T06:43:22.652Z,122.57
2022-11-03T06:45:53.015Z,82.70
2022-11-03T06:48:27.617Z,138.73
2022-11-03T06:50:56.902Z,51.60
2022-11-03T06:53:30.527Z,65.20
2022-11-03T06:55:58.406Z,45.63
2022-11-03T06:58:29.937Z,116.07
2022-11-03T07:01:03.616Z,45.73
2022-11-03T07:03:37.472Z,80.77
2022-11-03T07:06:16.165Z,24.67
2022-11-03T07:08:45.966Z,22.90
2022-11-03T07:11:18.332Z,32.43
2022-11-03T07:13:47.373Z,70.67
2022-11-03T07:16:19.213Z,61.73
2022-11-03T07:18:48.741Z,90.10
2022-11-03T07:21:42.231Z,38.63
2022-11-03T07:24:17.388Z,32.60
2022-11-03T07:26:45.112Z,27.00
2022-11-03T07:29:21.034Z,42.67
2022-11-03T07:31:49.376Z,58.20
2022-11-03T07:34:22.954Z,99.53
2022-11-03T07:36:55.624Z,41.17
2022-11-03T07:39:23.407Z,28.92
2022-11-03T07:41:51.883Z,39.33
2022-11-03T07:44:21.655Z,31.20
2022-11-03T07:46:50.659Z,34.73
2022-11-03T07:49:27.704Z,43.57
2022-11-03T07:51:57.179Z,17.63
2022-11-03T07:54:27.591Z,76.77
2022-11-03T07:56:59.115Z,48.90
2022-11-03T07:59:31.936Z,24.40
2022-11-03T08:02:00.894Z,25.80
2022-11-03T08:04:32.576Z,23.67
2022-11-03T08:07:00.175Z,29.07
2022-11-03T08:09:28.050Z,63.40
2022-11-03T08:11:55.586Z,24.03
2022-11-03T08:14:23.142Z,16.67
2022-11-03T08:16:50.669Z,23.23
2022-11-03T08:19:18.193Z,16.23
2022-11-03T08:21:47.082Z,47.00
2022-11-03T08:24:14.607Z,38.13
2022-11-03T08:26:42.129Z,43.75
2022-11-03T08:29:09.949Z,41.40
2022-11-03T08:31:37.500Z,29.15
2022-11-03T08:34:05.068Z,41.22
2022-11-03T08:36:32.670Z,41.00
2022-11-03T08:39:01.628Z,16.75
2022-11-03T08:41:29.162Z,41.67
2022-11-03T08:43:56.828Z,51.20
2022-11-03T08:46:24.371Z,57.28
2022-11-03T08:48:51.937Z,43.08
2022-11-03T08:51:19.522Z,39.75
2022-11-03T08:53:50.507Z,13.32
2022-11-03T08:56:22.349Z,15.38
2022-11-03T08:58:50.755Z,19.92
2022-11-03T09:01:18.648Z,12.98
2022-11-03T09:03:46.276Z,10.50
2022-11-03T09:06:14.574Z,8.88
2022-11-03T09:11:30.986Z,5.18
2022-11-03T09:13:58.552Z,4.90
2022-11-03T09:16:26.539Z,5.72
2022-11-03T09:18:54.167Z,5.53
2022-11-03T09:21:21.696Z,5.30
2022-11-03T09:23:49.253Z,4.90
2022-11-03T09:26:16.896Z,5.28
2022-11-03T09:28:45.905Z,4.68
2022-11-03T09:31:13.786Z,4.72
2022-11-03T09:33:41.347Z,5.50
2022-11-03T09:36:09.440Z,4.70
2022-11-03T09:38:37.038Z,3.92
2022-11-03T09:41:13.563Z,7.45
2022-11-03T09:43:54.900Z,4.38
2022-11-03T09:46:22.426Z,5.10
2022-11-03T09:48:49.981Z,6.45
2022-11-03T09:51:21.715Z,5.82
2022-11-03T09:53:49.842Z,4.28
2022-11-03T09:56:20.375Z,4.63
2022-11-03T09:58:53.073Z,3.40
2022-11-03T10:01:23.573Z,4.28
2022-11-03T10:03:51.301Z,5.55
2022-11-03T10:06:18.908Z,3.90
2022-11-03T10:08:48.282Z,6.03
2022-11-03T10:11:16.118Z,4.50
2022-11-03T10:13:48.820Z,3.42
2022-11-03T10:16:19.530Z,5.05
2022-11-03T10:18:48.567Z,3.63
2022-11-03T10:21:17.981Z,4.00
2022-11-03T10:23:45.789Z,3.25
2022-11-03T10:26:16.394Z,5.13
2022-11-03T10:28:59.238Z,3.53
2022-11-03T10:31:34.487Z,4.20
2022-11-03T10:34:04.140Z,5.47
2022-11-03T10:36:34.233Z,3.15
2022-11-03T10:39:30.660Z,3.55
2022-11-03T10:41:59.919Z,5.20
2022-11-03T10:44:29.179Z,5.57
2022-11-03T10:46:58.336Z,5.57
2022-11-03T10:49:26.366Z,4.60
2022-11-03T10:51:56.103Z,3.95
2022-11-03T10:54:26.285Z,4.15
2022-11-03T10:56:54.054Z,6.75
2022-11-03T10:59:25.272Z,4.80
2022-11-03T11:01:53.269Z,5.88
2022-11-03T11:04:21.985Z,7.50
2022-11-03T11:06:49.792Z,7.30
2022-11-03T11:09:25.484Z,5.35
2022-11-03T11:12:05.316Z,4.88
2022-11-03T11:14:39.239Z,4.85
2022-11-03T11:17:07.377Z,5.03
2022-11-03T11:20:05.245Z,4.70
2022-11-03T11:22:32.770Z,6.05
2022-11-03T11:25:02.454Z,4.75
2022-11-03T11:27:58.941Z,4.88
2022-11-03T11:31:03.578Z,6.93
2022-11-03T11:33:33.073Z,4.55
2022-11-03T11:36:20.040Z,6.00
2022-11-03T11:39:05.846Z,5.28
2022-11-03T11:42:11.974Z,6.00
2022-11-03T11:45:02.942Z,7.00
2022-11-03T11:47:43.693Z,4.40
2022-11-03T11:50:23.259Z,5.22
2022-11-03T11:52:56.837Z,6.93
2022-11-03T11:55:30.966Z,6.72
2022-11-03T11:58:00.287Z,5.57
2022-11-03T12:00:31.292Z,5.35
2022-11-03T12:03:00.871Z,7.85
2022-11-03T12:05:32.063Z,8.40
2022-11-03T12:07:59.797Z,4.68
2022-11-03T12:10:28.794Z,5.57
2022-11-03T12:12:57.602Z,5.40
2022-11-03T12:15:55.169Z,6.00
2022-11-03T12:18:38.923Z,4.57
2022-11-03T12:21:09.661Z,6.32
2022-11-03T12:23:41.107Z,5.03
2022-11-03T12:26:17.390Z,8.50
2022-11-03T12:28:45.411Z,7.13
2022-11-03T12:31:14.281Z,6.30
2022-11-03T12:33:41.829Z,4.93
2022-11-03T12:36:10.165Z,6.13
2022-11-03T12:38:37.749Z,5.03
2022-11-03T12:41:19.361Z,4.45
2022-11-03T12:43:47.112Z,7.05
2022-11-03T12:46:16.369Z,5.75
2022-11-03T12:48:44.773Z,5.57
2022-11-03T12:51:13.765Z,5.07
2022-11-03T12:53:42.026Z,5.22
2022-11-03T12:56:10.516Z,4.80
2022-11-03T12:58:38.432Z,7.30
2022-11-03T13:01:06.473Z,4.50
2022-11-03T13:03:36.533Z,4.97
2022-11-03T13:06:05.593Z,4.55
2022-11-03T13:08:33.181Z,7.00
2022-11-03T13:11:00.901Z,5.82
2022-11-03T13:13:28.830Z,4.65
2022-11-03T13:15:56.358Z,4.57
2022-11-03T13:18:23.890Z,4.88
2022-11-03T13:20:52.784Z,6.78
2022-11-03T13:23:22.996Z,4.57
2022-11-03T13:25:50.974Z,5.00
2022-11-03T13:28:18.584Z,4.90
2022-11-03T13:30:46.137Z,5.82
2022-11-03T13:33:13.682Z,5.38
2022-11-03T13:35:41.246Z,4.82
2022-11-03T13:38:10.165Z,4.40
2022-11-03T13:43:25.519Z,5.43
2022-11-03T13:45:53.891Z,4.15
2022-11-03T13:49:19.970Z,4.78
2022-11-03T13:51:11.947Z,6.40
2022-11-03T13:56:28.732Z,5.65
2022-11-03T14:01:44.069Z,6.88
2022-11-03T14:06:59.704Z,5.93
2022-11-03T14:09:29.177Z,8.48
2022-11-03T14:12:14.523Z,5.97
2022-11-03T14:14:42.247Z,8.40
2022-11-03T14:17:09.873Z,8.30
2022-11-03T14:19:43.739Z,7.03
2022-11-03T14:22:13.663Z,4.90
2022-11-03T14:24:42.545Z,6.88
2022-11-03T14:27:10.072Z,6.10
2022-11-03T14:29:37.597Z,6.95
2022-11-03T14:32:05.521Z,6.43
2022-11-03T14:34:33.283Z,6.63
2022-11-03T14:37:01.250Z,9.35
2022-11-03T14:39:29.258Z,6.65
2022-11-03T14:42:06.344Z,7.35
2022-11-03T14:44:35.473Z,8.52
2022-11-03T14:47:04.758Z,7.72
2022-11-03T14:49:33.585Z,6.90
2022-11-03T14:52:02.567Z,7.35
2022-11-03T14:54:31.172Z,6.80
2022-11-03T14:57:00.337Z,8.15
2022-11-03T14:59:27.943Z,8.95
2022-11-03T15:01:56.459Z,8.00
2022-11-03T15:04:24.355Z,9.23
2022-11-03T15:06:51.921Z,8.27
2022-11-03T15:09:19.669Z,8.10
2022-11-03T15:11:47.670Z,14.95
2022-11-03T15:14:16.575Z,11.32
2022-11-03T15:16:46.095Z,10.43
2022-11-03T15:19:14.070Z,10.52
2022-11-03T15:21:41.645Z,10.20
2022-11-03T15:26:56.932Z,12.27
2022-11-03T15:29:25.850Z,11.68
2022-11-03T15:31:53.376Z,9.27
2022-11-03T15:34:20.902Z,6.60
2022-11-03T15:36:48.472Z,13.95
2022-11-03T15:39:16.077Z,10.57
2022-11-03T15:41:43.583Z,7.18
2022-11-03T15:44:11.088Z,8.63
2022-11-03T15:46:39.930Z,9.00
2022-11-03T15:49:07.497Z,9.60
2022-11-03T15:51:35.009Z,7.55
2022-11-03T15:54:03.209Z,10.95
2022-11-03T15:56:31.285Z,7.15
2022-11-03T15:58:58.832Z,11.80
2022-11-03T16:01:26.452Z,8.43
2022-11-03T16:03:55.394Z,9.98
2022-11-03T16:06:40.274Z,10.13
2022-11-03T16:09:10.496Z,11.13
2022-11-03T16:11:38.028Z,19.23
2022-11-03T16:14:05.564Z,14.27
2022-11-03T16:16:33.087Z,12.43
2022-11-03T16:19:02.079Z,26.60
2022-11-03T16:21:29.775Z,28.40
2022-11-03T16:23:57.359Z,23.08
2022-11-03T16:26:24.921Z,25.38
2022-11-03T16:28:52.475Z,27.77
2022-11-03T16:31:20.039Z,16.70
2022-11-03T16:33:47.584Z,17.35
2022-11-03T16:36:16.586Z,14.57
2022-11-03T16:38:44.204Z,18.48
2022-11-03T16:41:11.777Z,16.38
2022-11-03T16:43:39.522Z,17.20
2022-11-03T16:46:07.115Z,17.30
2022-11-03T16:48:34.923Z,18.05
2022-11-03T16:51:02.416Z,17.67
2022-11-03T16:53:31.267Z,21.55
2022-11-03T16:55:58.844Z,21.48
2022-11-03T16:58:26.446Z,19.23
2022-11-03T17:00:54.030Z,25.38
2022-11-03T17:03:21.595Z,22.60
2022-11-03T17:05:49.125Z,19.77
2022-11-03T17:08:50.782Z,21.85
2022-11-03T17:11:05.730Z,19.85
2022-11-03T17:13:33.325Z,18.63
2022-11-03T17:16:00.927Z,18.83
2022-11-03T17:18:28.486Z,20.52
2022-11-03T17:20:56.025Z,16.20
2022-11-03T17:23:23.583Z,16.27
2022-11-03T17:25:51.175Z,13.75
2022-11-03T17:28:20.054Z,18.58
2022-11-03T17:30:48.005Z,19.50
2022-11-03T17:33:19.628Z,21.80
2022-11-03T17:35:47.686Z,20.92
2022-11-03T17:38:17.194Z,19.95
2022-11-03T17:40:46.048Z,22.02
2022-11-03T17:43:21.929Z,17.80
2022-11-03T17:45:49.766Z,20.98
2022-11-03T17:48:18.353Z,22.27
2022-11-03T17:50:47.922Z,23.70
2022-11-03T17:53:22.433Z,18.77
2022-11-03T17:56:08.832Z,16.25
2022-11-03T17:58:46.269Z,25.73
2022-11-03T18:01:21.074Z,22.67
2022-11-03T18:03:48.722Z,21.25
2022-11-03T18:06:19.201Z,19.73
2022-11-03T18:08:47.475Z,23.02
2022-11-03T18:11:30.746Z,18.50
2022-11-03T18:14:00.148Z,21.55
2022-11-03T18:16:27.831Z,20.33
2022-11-03T18:18:55.394Z,20.10
2022-11-03T18:21:24.322Z,18.80
2022-11-03T18:23:51.878Z,19.75
2022-11-03T18:26:21.195Z,19.67
2022-11-03T18:28:50.332Z,18.70
2022-11-03T18:31:24.459Z,21.27
2022-11-03T18:33:52.730Z,20.73
2022-11-03T18:36:21.089Z,20.67
2022-11-03T18:38:49.305Z,21.58
2022-11-03T18:41:36.263Z,19.67
2022-11-03T18:44:07.708Z,21.30
2022-11-03T18:46:36.600Z,21.17
2022-11-03T18:49:04.200Z,21.90
2022-11-03T18:51:31.818Z,21.48
2022-11-03T18:53:59.950Z,22.05
2022-11-03T18:56:28.367Z,18.38
2022-11-03T18:58:58.197Z,20.23
2022-11-03T19:01:27.459Z,18.80
2022-11-03T19:03:57.341Z,18.67
2022-11-03T19:06:25.271Z,20.85
2022-11-03T19:08:59.490Z,20.58
2022-11-03T19:11:28.005Z,23.13
2022-11-03T19:13:55.729Z,17.77
2022-11-03T19:16:24.876Z,24.35
2022-11-03T19:18:53.263Z,19.33
2022-11-03T19:21:24.378Z,21.90
2022-11-03T19:23:58.090Z,21.40
2022-11-03T19:26:30.264Z,24.83
2022-11-03T19:29:02.099Z,20.08
2022-11-03T19:31:33.956Z,23.63
2022-11-03T19:34:02.073Z,22.58
2022-11-03T19:36:31.460Z,19.38
2022-11-03T19:39:00.183Z,22.95
2022-11-03T19:41:45.557Z,21.48
2022-11-03T19:44:14.426Z,21.33
2022-11-03T19:46:42.950Z,20.77
2022-11-03T19:49:14.563Z,20.75
2022-11-03T19:51:43.689Z,20.73
2022-11-03T19:54:16.428Z,22.42
2022-11-03T19:56:43.985Z,27.75
2022-11-03T19:59:13.363Z,29.27
2022-11-03T20:01:41.051Z,27.08
2022-11-03T20:04:09.494Z,26.42
2022-11-03T20:06:38.171Z,30.80
2022-11-03T20:09:08.471Z,28.75
2022-11-03T20:11:36.593Z,29.25
2022-11-03T20:14:05.037Z,31.05
2022-11-03T20:16:32.617Z,29.90
2022-11-03T20:19:00.164Z,31.58
2022-11-03T20:21:34.061Z,25.50
2022-11-03T20:24:02.292Z,29.08
2022-11-03T20:26:31.385Z,20.30
2022-11-03T20:28:59.820Z,29.38
2022-11-03T20:31:27.397Z,28.75
2022-11-03T20:33:54.908Z,27.10
2022-11-03T20:36:22.792Z,30.50
2022-11-03T20:38:53.265Z,26.92
2022-11-03T20:41:21.076Z,24.50
2022-11-03T20:43:49.990Z,19.73
2022-11-03T20:46:23.610Z,29.73
2022-11-03T20:48:51.639Z,20.00
2022-11-03T20:51:21.267Z,23.45
2022-11-03T20:53:49.265Z,23.67
2022-11-03T20:56:19.779Z,29.20
2022-11-03T20:58:48.047Z,23.45
2022-11-03T21:01:19.391Z,27.67
2022-11-03T21:04:02.583Z,26.75
2022-11-03T21:06:32.350Z,24.23
2022-11-03T21:09:00.478Z,22.38
2022-11-03T21:11:31.044Z,23.05
2022-11-03T21:14:00.297Z,21.67
2022-11-03T21:16:48.128Z,22.67
2022-11-03T21:19:35.178Z,22.15
2022-11-03T21:22:03.204Z,22.73
2022-11-03T21:24:30.749Z,26.88
2022-11-03T21:26:58.287Z,24.98
2022-11-03T21:29:53.466Z,21.35
2022-11-03T21:32:17.034Z,21.33
2022-11-03T21:34:45.091Z,24.23
2022-11-03T21:37:15.135Z,19.65
2022-11-03T21:39:43.003Z,20.13
2022-11-03T21:42:28.494Z,23.30
2022-11-03T21:44:56.034Z,22.90
2022-11-03T21:47:25.675Z,20.15
2022-11-03T21:49:52.673Z,19.52
2022-11-03T21:52:31.584Z,20.42
2022-11-03T21:55:00.165Z,18.88
2022-11-03T21:57:28.418Z,19.88
2022-11-03T21:59:58.599Z,20.65
2022-11-03T22:02:29.985Z,19.13
2022-11-03T22:04:57.897Z,17.75
2022-11-03T22:07:25.759Z,21.63
2022-11-03T22:09:53.278Z,24.00
2022-11-03T22:12:20.868Z,19.45
2022-11-03T22:15:06.061Z,20.25
2022-11-03T22:17:35.243Z,19.65
2022-11-03T22:20:20.532Z,20.83
2022-11-03T22:23:05.693Z,20.88
2022-11-03T22:25:50.659Z,21.63
2022-11-03T22:28:18.450Z,16.60
2022-11-03T22:31:03.881Z,22.30
2022-11-03T22:33:52.770Z,20.13
2022-11-03T22:36:25.586Z,18.33
2022-11-03T22:39:10.739Z,23.15
2022-11-03T22:41:55.773Z,17.83
2022-11-03T22:44:55.706Z,20.15
2022-11-03T22:47:23.288Z,22.65
2022-11-03T22:49:52.171Z,26.85
2022-11-03T22:52:19.683Z,24.52
2022-11-03T22:54:46.222Z,25.05
2022-11-03T22:57:14.102Z,20.73
2022-11-03T22:59:41.873Z,20.55
2022-11-03T23:02:27.189Z,27.66
2022-11-03T23:04:56.117Z,21.45
2022-11-03T23:07:28.442Z,21.33
2022-11-03T23:09:59.131Z,21.58
2022-11-03T23:12:26.659Z,31.90
2022-11-03T23:15:11.893Z,24.17
2022-11-03T23:17:56.864Z,24.42
2022-11-03T23:20:43.086Z,24.13
2022-11-03T23:23:30.646Z,26.05
2022-11-03T23:25:57.202Z,29.48
2022-11-03T23:28:24.776Z,32.67
2022-11-03T23:30:52.311Z,34.20
2022-11-03T23:33:19.829Z,24.77
2022-11-03T23:35:48.702Z,21.15
2022-11-03T23:38:16.251Z,21.42
2022-11-03T23:40:43.777Z,21.92
2022-11-03T23:43:11.280Z,23.10
2022-11-03T23:45:56.530Z,22.27
2022-11-03T23:48:44.177Z,25.70
2022-11-03T23:51:13.612Z,24.17
2022-11-03T23:53:41.127Z,25.52
2022-11-03T23:56:27.158Z,26.77
2022-11-03T23:58:55.020Z,22.83
